sensor_id;sensor_type;location;lat;lon;timestamp;pressure;altitude;pressure_sealevel;temperature;humidity
37304;BME280;23188;51.188;16.374;2023-08-12T00:02:30;100792.10;;;16.67;100.00
37304;BME280;23188;51.188;16.374;2023-08-12T00:06:33;100791.86;;;16.67;100.00
37304;BME280;23188;51.188;16.374;2023-08-12T00:10:36;100790.51;;;16.68;100.00
37304;BME280;23188;51.188;16.374;2023-08-12T00:14:40;100785.42;;;16.69;100.00
37304;BME280;23188;51.188;16.374;2023-08-12T00:18:43;100780.42;;;16.67;100.00
37304;BME280;23188;51.188;16.374;2023-08-12T00:22:47;100768.38;;;16.64;100.00
37304;BME280;23188;51.188;16.374;2023-08-12T00:26:50;100758.67;;;16.63;100.00
37304;BME280;23188;51.188;16.374;2023-08-12T00:30:54;100762.67;;;16.64;100.00
37304;BME280;23188;51.188;16.374;2023-08-12T00:34:58;100762.19;;;16.62;100.00
37304;BME280;23188;51.188;16.374;2023-08-12T00:39:01;100765.18;;;16.62;100.00
37304;BME280;23188;51.188;16.374;2023-08-12T00:43:07;100759.48;;;16.65;100.00
37304;BME280;23188;51.188;16.374;2023-08-12T00:47:12;100763.59;;;16.67;100.00
37304;BME280;23188;51.188;16.374;2023-08-12T00:51:16;100763.86;;;16.70;100.00
37304;BME280;23188;51.188;16.374;2023-08-12T00:55:21;100753.77;;;16.69;100.00
37304;BME280;23188;51.188;16.374;2023-08-12T00:59:25;100749.80;;;16.67;100.00
37304;BME280;23188;51.188;16.374;2023-08-12T01:03:29;100748.09;;;16.68;100.00
37304;BME280;23188;51.188;16.374;2023-08-12T01:07:33;100742.65;;;16.65;100.00
37304;BME280;23188;51.188;16.374;2023-08-12T01:11:50;100742.60;;;16.64;100.00
37304;BME280;23188;51.188;16.374;2023-08-12T01:16:00;100729.65;;;16.58;100.00
37304;BME280;23188;51.188;16.374;2023-08-12T01:20:07;100727.05;;;16.48;100.00
37304;BME280;23188;51.188;16.374;2023-08-12T01:24:11;100729.56;;;16.40;100.00
37304;BME280;23188;51.188;16.374;2023-08-12T01:28:15;100728.26;;;16.37;100.00
37304;BME280;23188;51.188;16.374;2023-08-12T01:32:40;100725.48;;;16.33;100.00
37304;BME280;23188;51.188;16.374;2023-08-12T01:36:53;100731.46;;;16.28;100.00
37304;BME280;23188;51.188;16.374;2023-08-12T01:40:59;100728.91;;;16.27;100.00
37304;BME280;23188;51.188;16.374;2023-08-12T01:45:03;100725.89;;;16.21;100.00
37304;BME280;23188;51.188;16.374;2023-08-12T01:49:07;100723.09;;;16.17;100.00
37304;BME280;23188;51.188;16.374;2023-08-12T01:53:11;100719.64;;;16.18;100.00
37304;BME280;23188;51.188;16.374;2023-08-12T01:57:14;100723.62;;;16.19;100.00
37304;BME280;23188;51.188;16.374;2023-08-12T02:01:17;100726.64;;;16.16;100.00
37304;BME280;23188;51.188;16.374;2023-08-12T02:05:21;100723.54;;;16.17;100.00
37304;BME280;23188;51.188;16.374;2023-08-12T02:09:24;100730.46;;;16.09;100.00
37304;BME280;23188;51.188;16.374;2023-08-12T02:13:27;100727.04;;;16.06;100.00
37304;BME280;23188;51.188;16.374;2023-08-12T02:17:31;100725.15;;;16.05;100.00
37304;BME280;23188;51.188;16.374;2023-08-12T02:21:34;100720.41;;;16.04;100.00
37304;BME280;23188;51.188;16.374;2023-08-12T02:25:38;100720.13;;;16.05;100.00
37304;BME280;23188;51.188;16.374;2023-08-12T02:29:41;100720.25;;;15.98;100.00
37304;BME280;23188;51.188;16.374;2023-08-12T02:33:45;100712.58;;;15.95;100.00
37304;BME280;23188;51.188;16.374;2023-08-12T02:37:48;100714.24;;;15.92;100.00
37304;BME280;23188;51.188;16.374;2023-08-12T02:41:52;100709.36;;;15.91;100.00
37304;BME280;23188;51.188;16.374;2023-08-12T02:45:55;100705.60;;;15.87;100.00
37304;BME280;23188;51.188;16.374;2023-08-12T02:49:59;100707.73;;;15.85;100.00
37304;BME280;23188;51.188;16.374;2023-08-12T02:54:03;100710.61;;;15.87;100.00
37304;BME280;23188;51.188;16.374;2023-08-12T02:58:07;100714.05;;;15.89;100.00
37304;BME280;23188;51.188;16.374;2023-08-12T03:02:10;100712.20;;;15.83;100.00
37304;BME280;23188;51.188;16.374;2023-08-12T03:06:14;100709.89;;;15.74;100.00
37304;BME280;23188;51.188;16.374;2023-08-12T03:10:18;100704.63;;;15.63;100.00
37304;BME280;23188;51.188;16.374;2023-08-12T03:14:23;100703.81;;;15.57;100.00
37304;BME280;23188;51.188;16.374;2023-08-12T03:18:27;100707.13;;;15.50;100.00
37304;BME280;23188;51.188;16.374;2023-08-12T03:22:30;100706.00;;;15.40;100.00
37304;BME280;23188;51.188;16.374;2023-08-12T03:26:34;100709.35;;;15.37;100.00
37304;BME280;23188;51.188;16.374;2023-08-12T03:30:37;100711.09;;;15.39;100.00
37304;BME280;23188;51.188;16.374;2023-08-12T03:34:40;100708.84;;;15.36;100.00
37304;BME280;23188;51.188;16.374;2023-08-12T03:38:44;100708.05;;;15.35;100.00
37304;BME280;23188;51.188;16.374;2023-08-12T03:42:47;100707.69;;;15.33;100.00
37304;BME280;23188;51.188;16.374;2023-08-12T03:46:51;100702.98;;;15.26;100.00
37304;BME280;23188;51.188;16.374;2023-08-12T03:50:54;100700.95;;;15.23;100.00
37304;BME280;23188;51.188;16.374;2023-08-12T03:54:57;100702.73;;;15.23;100.00
37304;BME280;23188;51.188;16.374;2023-08-12T03:59:01;100704.94;;;15.26;100.00
37304;BME280;23188;51.188;16.374;2023-08-12T04:03:05;100705.98;;;15.28;100.00
37304;BME280;23188;51.188;16.374;2023-08-12T04:07:09;100704.23;;;15.32;100.00
37304;BME280;23188;51.188;16.374;2023-08-12T04:11:13;100706.08;;;15.35;100.00
37304;BME280;23188;51.188;16.374;2023-08-12T04:15:18;100708.66;;;15.38;100.00
37304;BME280;23188;51.188;16.374;2023-08-12T04:19:22;100709.56;;;15.53;100.00
37304;BME280;23188;51.188;16.374;2023-08-12T04:23:25;100710.80;;;15.75;100.00
37304;BME280;23188;51.188;16.374;2023-08-12T04:27:29;100708.16;;;15.92;100.00
37304;BME280;23188;51.188;16.374;2023-08-12T04:31:33;100706.15;;;16.07;100.00
37304;BME280;23188;51.188;16.374;2023-08-12T04:35:37;100695.56;;;16.56;100.00
37304;BME280;23188;51.188;16.374;2023-08-12T04:39:43;100688.51;;;17.42;100.00
37304;BME280;23188;51.188;16.374;2023-08-12T04:43:47;100684.77;;;18.20;100.00
37304;BME280;23188;51.188;16.374;2023-08-12T04:47:51;100676.77;;;18.99;100.00
37304;BME280;23188;51.188;16.374;2023-08-12T04:51:54;100676.66;;;19.53;98.59
37304;BME280;23188;51.188;16.374;2023-08-12T04:55:58;100680.72;;;19.84;95.90
37304;BME280;23188;51.188;16.374;2023-08-12T05:00:02;100672.48;;;19.97;94.50
37304;BME280;23188;51.188;16.374;2023-08-12T05:04:06;100671.20;;;19.89;94.75
37304;BME280;23188;51.188;16.374;2023-08-12T05:08:10;100668.92;;;19.82;95.07
37304;BME280;23188;51.188;16.374;2023-08-12T05:12:14;100662.75;;;20.01;95.31
37304;BME280;23188;51.188;16.374;2023-08-12T05:16:17;100660.77;;;20.49;93.31
37304;BME280;23188;51.188;16.374;2023-08-12T05:20:21;100656.23;;;20.93;91.96
37304;BME280;23188;51.188;16.374;2023-08-12T05:24:24;100649.84;;;21.35;87.70
37304;BME280;23188;51.188;16.374;2023-08-12T05:28:28;100645.84;;;21.42;87.44
37304;BME280;23188;51.188;16.374;2023-08-12T05:32:32;100646.83;;;21.41;88.24
37304;BME280;23188;51.188;16.374;2023-08-12T05:36:36;100646.97;;;21.29;88.72
37304;BME280;23188;51.188;16.374;2023-08-12T05:40:39;100652.32;;;21.24;88.91
37304;BME280;23188;51.188;16.374;2023-08-12T05:44:43;100654.44;;;21.09;89.41
37304;BME280;23188;51.188;16.374;2023-08-12T05:48:47;100653.39;;;21.03;90.81
37304;BME280;23188;51.188;16.374;2023-08-12T05:52:51;100652.54;;;21.25;92.18
37304;BME280;23188;51.188;16.374;2023-08-12T05:56:55;100657.88;;;21.91;90.72
37304;BME280;23188;51.188;16.374;2023-08-12T06:00:58;100651.66;;;22.28;86.34
37304;BME280;23188;51.188;16.374;2023-08-12T06:05:02;100644.98;;;22.36;86.40
37304;BME280;23188;51.188;16.374;2023-08-12T06:09:06;100640.98;;;22.47;86.09
37304;BME280;23188;51.188;16.374;2023-08-12T06:13:09;100640.21;;;22.50;86.55
37304;BME280;23188;51.188;16.374;2023-08-12T06:17:12;100640.21;;;22.56;85.93
37304;BME280;23188;51.188;16.374;2023-08-12T06:21:16;100639.41;;;22.59;85.89
37304;BME280;23188;51.188;16.374;2023-08-12T06:25:19;100636.71;;;22.45;87.39
37304;BME280;23188;51.188;16.374;2023-08-12T06:29:23;100633.40;;;22.50;87.56
37304;BME280;23188;51.188;16.374;2023-08-12T06:33:26;100626.61;;;22.86;88.09
37304;BME280;23188;51.188;16.374;2023-08-12T06:37:30;100619.52;;;23.29;85.87
37304;BME280;23188;51.188;16.374;2023-08-12T06:41:34;100619.30;;;23.77;83.96
37304;BME280;23188;51.188;16.374;2023-08-12T06:45:38;100616.01;;;24.28;81.21
37304;BME280;23188;51.188;16.374;2023-08-12T06:49:42;100607.63;;;24.76;78.13
37304;BME280;23188;51.188;16.374;2023-08-12T06:53:46;100599.71;;;25.07;77.33
37304;BME280;23188;51.188;16.374;2023-08-12T06:57:50;100593.29;;;25.27;75.97
37304;BME280;23188;51.188;16.374;2023-08-12T07:01:53;100589.16;;;25.61;73.49
37304;BME280;23188;51.188;16.374;2023-08-12T07:05:57;100584.30;;;25.92;71.49
37304;BME280;23188;51.188;16.374;2023-08-12T07:10:01;100591.31;;;26.20;70.51
37304;BME280;23188;51.188;16.374;2023-08-12T07:14:06;100591.30;;;26.44;70.40
37304;BME280;23188;51.188;16.374;2023-08-12T07:18:11;100587.68;;;26.44;69.22
37304;BME280;23188;51.188;16.374;2023-08-12T07:22:15;100584.99;;;26.38;68.64
37304;BME280;23188;51.188;16.374;2023-08-12T07:26:22;100588.48;;;26.40;69.89
37304;BME280;23188;51.188;16.374;2023-08-12T07:30:26;100584.70;;;26.57;68.61
37304;BME280;23188;51.188;16.374;2023-08-12T07:34:30;100579.73;;;26.75;68.60
37304;BME280;23188;51.188;16.374;2023-08-12T07:38:35;100576.44;;;26.99;66.78
37304;BME280;23188;51.188;16.374;2023-08-12T07:42:39;100575.80;;;27.27;67.40
37304;BME280;23188;51.188;16.374;2023-08-12T07:46:43;100577.29;;;27.46;66.69
37304;BME280;23188;51.188;16.374;2023-08-12T07:50:54;100575.22;;;27.52;65.93
37304;BME280;23188;51.188;16.374;2023-08-12T07:54:58;100571.72;;;27.71;66.45
37304;BME280;23188;51.188;16.374;2023-08-12T07:59:02;100570.84;;;27.80;66.24
37304;BME280;23188;51.188;16.374;2023-08-12T08:03:07;100570.69;;;27.92;67.11
37304;BME280;23188;51.188;16.374;2023-08-12T08:07:11;100570.56;;;28.00;65.84
37304;BME280;23188;51.188;16.374;2023-08-12T08:11:14;100569.20;;;28.16;65.70
37304;BME280;23188;51.188;16.374;2023-08-12T08:15:18;100560.93;;;28.33;65.81
37304;BME280;23188;51.188;16.374;2023-08-12T08:19:21;100558.29;;;28.52;65.28
37304;BME280;23188;51.188;16.374;2023-08-12T08:23:32;100554.15;;;28.73;63.96
37304;BME280;23188;51.188;16.374;2023-08-12T08:27:35;100549.17;;;28.87;64.20
37304;BME280;23188;51.188;16.374;2023-08-12T08:31:39;100540.86;;;28.98;62.78
37304;BME280;23188;51.188;16.374;2023-08-12T08:35:43;100539.29;;;29.16;63.97
37304;BME280;23188;51.188;16.374;2023-08-12T08:39:46;100540.75;;;29.25;61.85
37304;BME280;23188;51.188;16.374;2023-08-12T08:43:52;100538.67;;;29.31;62.88
37304;BME280;23188;51.188;16.374;2023-08-12T08:47:59;100538.27;;;29.40;62.09
37304;BME280;23188;51.188;16.374;2023-08-12T08:52:04;100540.48;;;29.47;62.07
37304;BME280;23188;51.188;16.374;2023-08-12T08:56:08;100536.64;;;29.46;62.30
37304;BME280;23188;51.188;16.374;2023-08-12T09:00:18;100536.52;;;29.59;59.99
37304;BME280;23188;51.188;16.374;2023-08-12T09:04:23;100533.45;;;29.71;59.05
37304;BME280;23188;51.188;16.374;2023-08-12T09:08:27;100526.79;;;29.90;60.42
37304;BME280;23188;51.188;16.374;2023-08-12T09:12:32;100527.55;;;30.08;59.99
37304;BME280;23188;51.188;16.374;2023-08-12T09:16:36;100521.00;;;30.22;58.62
37304;BME280;23188;51.188;16.374;2023-08-12T09:20:41;100517.18;;;30.39;57.61
37304;BME280;23188;51.188;16.374;2023-08-12T09:24:49;100516.94;;;30.45;59.08
37304;BME280;23188;51.188;16.374;2023-08-12T09:28:53;100519.23;;;30.52;58.05
37304;BME280;23188;51.188;16.374;2023-08-12T09:32:59;100514.17;;;30.60;56.87
37304;BME280;23188;51.188;16.374;2023-08-12T09:37:04;100508.39;;;30.61;56.76
37304;BME280;23188;51.188;16.374;2023-08-12T09:41:08;100504.86;;;30.61;56.22
37304;BME280;23188;51.188;16.374;2023-08-12T09:45:12;100500.56;;;30.56;56.59
37304;BME280;23188;51.188;16.374;2023-08-12T09:49:20;100494.66;;;30.49;57.20
37304;BME280;23188;51.188;16.374;2023-08-12T09:53:24;100491.36;;;30.54;57.04
37304;BME280;23188;51.188;16.374;2023-08-12T09:57:28;100485.67;;;30.55;57.51
37304;BME280;23188;51.188;16.374;2023-08-12T10:01:38;100481.66;;;30.55;56.47
37304;BME280;23188;51.188;16.374;2023-08-12T10:05:43;100479.89;;;30.60;58.14
37304;BME280;23188;51.188;16.374;2023-08-12T10:09:48;100477.58;;;30.64;57.34
37304;BME280;23188;51.188;16.374;2023-08-12T10:13:52;100474.88;;;30.64;58.00
37304;BME280;23188;51.188;16.374;2023-08-12T10:17:56;100477.69;;;30.48;58.20
37304;BME280;23188;51.188;16.374;2023-08-12T10:22:02;100472.46;;;30.44;58.74
37304;BME280;23188;51.188;16.374;2023-08-12T10:26:08;100464.88;;;30.38;56.99
37304;BME280;23188;51.188;16.374;2023-08-12T10:30:14;100461.57;;;30.32;57.06
37304;BME280;23188;51.188;16.374;2023-08-12T10:34:24;100463.77;;;30.38;57.14
37304;BME280;23188;51.188;16.374;2023-08-12T10:38:31;100460.09;;;30.50;56.41
37304;BME280;23188;51.188;16.374;2023-08-12T10:42:43;100452.60;;;30.57;58.04
37304;BME280;23188;51.188;16.374;2023-08-12T10:46:51;100448.75;;;30.73;57.38
37304;BME280;23188;51.188;16.374;2023-08-12T10:50:58;100452.13;;;30.91;56.35
37304;BME280;23188;51.188;16.374;2023-08-12T11:03:50;100440.05;;;31.02;55.29
37304;BME280;23188;51.188;16.374;2023-08-12T11:12:02;100434.66;;;31.18;55.16
37304;BME280;23188;51.188;16.374;2023-08-12T11:16:07;100432.34;;;31.17;55.21
37304;BME280;23188;51.188;16.374;2023-08-12T11:20:12;100424.02;;;31.19;53.48
37304;BME280;23188;51.188;16.374;2023-08-12T11:24:17;100421.77;;;31.25;54.57
37304;BME280;23188;51.188;16.374;2023-08-12T11:28:23;100415.84;;;31.24;53.28
37304;BME280;23188;51.188;16.374;2023-08-12T11:32:27;100411.96;;;31.26;53.73
37304;BME280;23188;51.188;16.374;2023-08-12T11:37:02;100403.04;;;31.33;57.15
37304;BME280;23188;51.188;16.374;2023-08-12T11:41:08;100396.56;;;31.32;52.60
37304;BME280;23188;51.188;16.374;2023-08-12T11:45:15;100387.16;;;31.39;54.98
37304;BME280;23188;51.188;16.374;2023-08-12T11:49:19;100377.61;;;31.56;55.00
37304;BME280;23188;51.188;16.374;2023-08-12T11:53:23;100374.27;;;31.67;53.44
37304;BME280;23188;51.188;16.374;2023-08-12T11:57:27;100369.63;;;31.79;54.85
37304;BME280;23188;51.188;16.374;2023-08-12T12:01:31;100368.27;;;31.90;54.53
37304;BME280;23188;51.188;16.374;2023-08-12T12:05:35;100364.73;;;31.87;52.26
37304;BME280;23188;51.188;16.374;2023-08-12T12:09:43;100360.48;;;31.84;51.49
37304;BME280;23188;51.188;16.374;2023-08-12T12:13:47;100360.90;;;31.91;53.12
37304;BME280;23188;51.188;16.374;2023-08-12T12:17:51;100361.70;;;31.94;53.11
37304;BME280;23188;51.188;16.374;2023-08-12T12:21:55;100358.47;;;32.12;53.29
37304;BME280;23188;51.188;16.374;2023-08-12T12:26:02;100360.66;;;32.22;52.68
37304;BME280;23188;51.188;16.374;2023-08-12T12:30:10;100356.57;;;32.32;50.10
37304;BME280;23188;51.188;16.374;2023-08-12T12:34:15;100351.02;;;32.45;50.84
37304;BME280;23188;51.188;16.374;2023-08-12T12:38:20;100347.66;;;32.51;49.39
37304;BME280;23188;51.188;16.374;2023-08-12T12:42:23;100343.77;;;32.56;52.79
37304;BME280;23188;51.188;16.374;2023-08-12T12:46:35;100338.34;;;32.71;51.13
37304;BME280;23188;51.188;16.374;2023-08-12T12:50:39;100331.19;;;32.79;50.96
37304;BME280;23188;51.188;16.374;2023-08-12T12:54:52;100324.75;;;32.86;50.33
37304;BME280;23188;51.188;16.374;2023-08-12T12:58:56;100321.33;;;32.98;50.46
37304;BME280;23188;51.188;16.374;2023-08-12T13:03:11;100312.88;;;33.00;48.78
37304;BME280;23188;51.188;16.374;2023-08-12T13:07:19;100311.06;;;32.99;48.86
37304;BME280;23188;51.188;16.374;2023-08-12T13:11:23;100311.66;;;33.07;50.43
37304;BME280;23188;51.188;16.374;2023-08-12T13:15:32;100306.09;;;33.18;50.21
37304;BME280;23188;51.188;16.374;2023-08-12T13:19:38;100301.45;;;33.21;46.26
37304;BME280;23188;51.188;16.374;2023-08-12T13:23:44;100298.03;;;33.28;47.96
37304;BME280;23188;51.188;16.374;2023-08-12T13:27:52;100292.60;;;33.37;47.29
37304;BME280;23188;51.188;16.374;2023-08-12T13:31:59;100289.40;;;33.39;47.42
37304;BME280;23188;51.188;16.374;2023-08-12T13:36:31;100285.05;;;33.41;47.23
37304;BME280;23188;51.188;16.374;2023-08-12T13:40:38;100280.09;;;33.50;47.98
37304;BME280;23188;51.188;16.374;2023-08-12T13:44:44;100273.64;;;33.40;45.05
37304;BME280;23188;51.188;16.374;2023-08-12T13:48:52;100267.61;;;33.24;45.24
37304;BME280;23188;51.188;16.374;2023-08-12T13:52:57;100267.67;;;33.19;45.99
37304;BME280;23188;51.188;16.374;2023-08-12T13:57:05;100259.61;;;33.25;48.88
37304;BME280;23188;51.188;16.374;2023-08-12T14:01:13;100253.08;;;33.43;49.40
37304;BME280;23188;51.188;16.374;2023-08-12T14:05:19;100246.13;;;33.43;44.66
37304;BME280;23188;51.188;16.374;2023-08-12T14:09:24;100243.11;;;33.35;43.82
37304;BME280;23188;51.188;16.374;2023-08-12T14:13:30;100240.23;;;33.37;47.29
37304;BME280;23188;51.188;16.374;2023-08-12T14:17:35;100233.21;;;33.29;49.92
37304;BME280;23188;51.188;16.374;2023-08-12T14:21:42;100224.54;;;33.11;47.99
37304;BME280;23188;51.188;16.374;2023-08-12T14:25:50;100214.48;;;32.97;49.72
37304;BME280;23188;51.188;16.374;2023-08-12T14:30:00;100207.93;;;32.81;50.15
37304;BME280;23188;51.188;16.374;2023-08-12T14:34:04;100198.14;;;32.62;49.46
37304;BME280;23188;51.188;16.374;2023-08-12T14:38:10;100198.20;;;32.60;48.86
37304;BME280;23188;51.188;16.374;2023-08-12T14:42:14;100198.14;;;32.67;50.10
37304;BME280;23188;51.188;16.374;2023-08-12T14:46:19;100202.48;;;32.87;49.51
37304;BME280;23188;51.188;16.374;2023-08-12T14:50:23;100198.70;;;33.10;51.74
37304;BME280;23188;51.188;16.374;2023-08-12T14:54:28;100192.91;;;33.28;49.78
37304;BME280;23188;51.188;16.374;2023-08-12T14:58:33;100196.53;;;33.36;49.48
37304;BME280;23188;51.188;16.374;2023-08-12T15:02:39;100198.27;;;33.39;51.59
37304;BME280;23188;51.188;16.374;2023-08-12T15:06:46;100194.16;;;33.54;51.35
37304;BME280;23188;51.188;16.374;2023-08-12T15:10:51;100195.89;;;33.64;50.88
37304;BME280;23188;51.188;16.374;2023-08-12T15:14:56;100192.81;;;33.69;48.31
37304;BME280;23188;51.188;16.374;2023-08-12T15:19:01;100191.30;;;33.65;50.77
37304;BME280;23188;51.188;16.374;2023-08-12T15:23:06;100181.39;;;33.48;49.33
37304;BME280;23188;51.188;16.374;2023-08-12T15:27:10;100180.02;;;33.12;47.70
37304;BME280;23188;51.188;16.374;2023-08-12T15:31:15;100186.02;;;32.86;50.29
37304;BME280;23188;51.188;16.374;2023-08-12T15:35:20;100181.98;;;32.72;51.16
37304;BME280;23188;51.188;16.374;2023-08-12T15:39:28;100176.89;;;32.58;51.62
37304;BME280;23188;51.188;16.374;2023-08-12T15:43:33;100176.52;;;32.58;54.36
37304;BME280;23188;51.188;16.374;2023-08-12T15:47:41;100177.02;;;32.50;51.86
37304;BME280;23188;51.188;16.374;2023-08-12T15:51:46;100174.90;;;32.36;51.62
37304;BME280;23188;51.188;16.374;2023-08-12T15:55:51;100174.05;;;32.14;50.81
37304;BME280;23188;51.188;16.374;2023-08-12T15:59:57;100170.58;;;32.08;52.12
37304;BME280;23188;51.188;16.374;2023-08-12T16:04:10;100165.02;;;32.04;51.02
37304;BME280;23188;51.188;16.374;2023-08-12T16:08:20;100166.45;;;32.02;52.29
37304;BME280;23188;51.188;16.374;2023-08-12T16:12:30;100163.08;;;31.99;52.98
37304;BME280;23188;51.188;16.374;2023-08-12T16:16:39;100160.09;;;31.91;52.39
37304;BME280;23188;51.188;16.374;2023-08-12T16:20:43;100161.02;;;31.82;52.57
37304;BME280;23188;51.188;16.374;2023-08-12T16:24:48;100159.03;;;31.71;51.66
37304;BME280;23188;51.188;16.374;2023-08-12T16:28:56;100160.23;;;31.65;53.00
37304;BME280;23188;51.188;16.374;2023-08-12T16:33:02;100155.79;;;31.52;51.47
37304;BME280;23188;51.188;16.374;2023-08-12T16:37:07;100151.39;;;31.39;52.52
37304;BME280;23188;51.188;16.374;2023-08-12T16:41:24;100153.89;;;31.30;52.84
37304;BME280;23188;51.188;16.374;2023-08-12T16:45:28;100153.69;;;31.16;53.15
37304;BME280;23188;51.188;16.374;2023-08-12T16:49:33;100152.35;;;31.04;53.38
37304;BME280;23188;51.188;16.374;2023-08-12T16:53:37;100152.45;;;30.90;53.78
37304;BME280;23188;51.188;16.374;2023-08-12T16:57:44;100154.21;;;30.83;53.95
37304;BME280;23188;51.188;16.374;2023-08-12T17:01:51;100155.27;;;30.74;54.43
37304;BME280;23188;51.188;16.374;2023-08-12T17:05:55;100151.45;;;30.59;55.22
37304;BME280;23188;51.188;16.374;2023-08-12T17:10:00;100151.10;;;30.43;55.75
37304;BME280;23188;51.188;16.374;2023-08-12T17:14:04;100146.58;;;30.26;56.38
37304;BME280;23188;51.188;16.374;2023-08-12T17:18:09;100146.83;;;30.11;56.73
37304;BME280;23188;51.188;16.374;2023-08-12T17:22:13;100148.44;;;29.93;57.44
37304;BME280;23188;51.188;16.374;2023-08-12T17:26:18;100149.79;;;29.81;57.61
37304;BME280;23188;51.188;16.374;2023-08-12T18:09:47;100162.16;;;28.32;62.13
37304;BME280;23188;51.188;16.374;2023-08-12T18:13:50;100165.13;;;28.17;62.86
37304;BME280;23188;51.188;16.374;2023-08-12T18:17:54;100166.63;;;28.04;63.38
37304;BME280;23188;51.188;16.374;2023-08-12T18:21:58;100174.71;;;27.95;63.53
37304;BME280;23188;51.188;16.374;2023-08-12T18:26:01;100178.05;;;27.87;64.22
37304;BME280;23188;51.188;16.374;2023-08-12T18:30:06;100174.19;;;27.79;64.79
37304;BME280;23188;51.188;16.374;2023-08-12T18:34:10;100169.66;;;27.68;65.39
37304;BME280;23188;51.188;16.374;2023-08-12T18:38:14;100165.70;;;27.54;64.93
37304;BME280;23188;51.188;16.374;2023-08-12T18:42:17;100175.27;;;27.32;64.56
37304;BME280;23188;51.188;16.374;2023-08-12T18:46:21;100186.39;;;27.06;65.38
37304;BME280;23188;51.188;16.374;2023-08-12T18:50:25;100185.02;;;26.80;66.82
37304;BME280;23188;51.188;16.374;2023-08-12T18:54:28;100181.11;;;26.60;68.56
37304;BME280;23188;51.188;16.374;2023-08-12T18:58:31;100183.06;;;26.42;69.77
37304;BME280;23188;51.188;16.374;2023-08-12T19:02:35;100178.96;;;26.31;70.65
37304;BME280;23188;51.188;16.374;2023-08-12T19:06:39;100171.41;;;26.19;72.32
37304;BME280;23188;51.188;16.374;2023-08-12T19:10:45;100173.02;;;25.96;73.21
37304;BME280;23188;51.188;16.374;2023-08-12T19:14:48;100176.04;;;25.75;74.31
37304;BME280;23188;51.188;16.374;2023-08-12T19:18:52;100188.00;;;25.63;74.58
37304;BME280;23188;51.188;16.374;2023-08-12T19:22:55;100186.52;;;25.53;74.95
37304;BME280;23188;51.188;16.374;2023-08-12T19:26:58;100190.92;;;25.42;75.80
37304;BME280;23188;51.188;16.374;2023-08-12T19:31:02;100198.80;;;25.36;75.96
37304;BME280;23188;51.188;16.374;2023-08-12T19:35:06;100198.92;;;25.30;75.50
37304;BME280;23188;51.188;16.374;2023-08-12T19:39:16;100199.53;;;25.22;76.19
37304;BME280;23188;51.188;16.374;2023-08-12T19:43:22;100199.36;;;25.08;76.16
37304;BME280;23188;51.188;16.374;2023-08-12T19:47:39;100203.00;;;24.92;77.86
37304;BME280;23188;51.188;16.374;2023-08-12T19:51:46;100205.44;;;24.72;78.91
37304;BME280;23188;51.188;16.374;2023-08-12T19:55:54;100201.02;;;24.53;78.89
37304;BME280;23188;51.188;16.374;2023-08-12T20:00:05;100199.85;;;24.40;79.13
37304;BME280;23188;51.188;16.374;2023-08-12T20:04:11;100192.48;;;24.30;79.29
37304;BME280;23188;51.188;16.374;2023-08-12T20:08:18;100196.67;;;24.22;81.17
37304;BME280;23188;51.188;16.374;2023-08-12T20:12:22;100194.29;;;24.06;84.48
37304;BME280;23188;51.188;16.374;2023-08-12T20:16:27;100191.48;;;23.87;83.56
37304;BME280;23188;51.188;16.374;2023-08-12T20:20:31;100193.91;;;23.77;83.25
37304;BME280;23188;51.188;16.374;2023-08-12T20:24:36;100197.20;;;23.69;83.77
37304;BME280;23188;51.188;16.374;2023-08-12T20:28:40;100194.02;;;23.56;84.63
37304;BME280;23188;51.188;16.374;2023-08-12T20:32:44;100191.60;;;23.44;85.71
37304;BME280;23188;51.188;16.374;2023-08-12T20:36:48;100189.27;;;23.25;86.82
37304;BME280;23188;51.188;16.374;2023-08-12T20:40:52;100190.73;;;23.10;87.58
37304;BME280;23188;51.188;16.374;2023-08-12T20:44:55;100187.95;;;22.99;88.52
37304;BME280;23188;51.188;16.374;2023-08-12T20:48:59;100190.00;;;22.85;88.71
37304;BME280;23188;51.188;16.374;2023-08-12T20:53:02;100184.55;;;22.74;89.36
37304;BME280;23188;51.188;16.374;2023-08-12T20:57:06;100182.88;;;22.68;89.79
37304;BME280;23188;51.188;16.374;2023-08-12T21:01:09;100188.67;;;22.57;90.38
37304;BME280;23188;51.188;16.374;2023-08-12T21:05:13;100181.77;;;22.47;90.58
37304;BME280;23188;51.188;16.374;2023-08-12T21:09:16;100176.45;;;22.36;90.87
37304;BME280;23188;51.188;16.374;2023-08-12T21:13:21;100180.03;;;22.27;91.11
37304;BME280;23188;51.188;16.374;2023-08-12T21:17:24;100181.85;;;22.21;91.89
37304;BME280;23188;51.188;16.374;2023-08-12T21:21:28;100173.13;;;22.18;91.72
37304;BME280;23188;51.188;16.374;2023-08-12T21:25:31;100179.01;;;22.20;91.13
37304;BME280;23188;51.188;16.374;2023-08-12T21:29:35;100174.06;;;22.25;90.26
37304;BME280;23188;51.188;16.374;2023-08-12T21:33:38;100170.90;;;22.29;90.03
37304;BME280;23188;51.188;16.374;2023-08-12T21:37:41;100165.70;;;22.31;90.37
37304;BME280;23188;51.188;16.374;2023-08-12T21:41:45;100165.98;;;22.39;89.09
37304;BME280;23188;51.188;16.374;2023-08-12T21:45:49;100166.58;;;22.48;89.11
37304;BME280;23188;51.188;16.374;2023-08-12T21:49:52;100166.54;;;22.54;88.90
37304;BME280;23188;51.188;16.374;2023-08-12T21:53:55;100164.86;;;22.57;88.45